sensor_id;sensor_type;location;lat;lon;timestamp;temperature;humidity
29431;DHT22;16404;49.902;10.074;2022-10-17T00:02:06;16.60;68.20
29431;DHT22;16404;49.902;10.074;2022-10-17T00:04:51;16.60;68.30
29431;DHT22;16404;49.902;10.074;2022-10-17T00:07:35;16.50;68.40
29431;DHT22;16404;49.902;10.074;2022-10-17T00:10:21;16.50;69.00
29431;DHT22;16404;49.902;10.074;2022-10-17T00:13:05;16.50;69.30
29431;DHT22;16404;49.902;10.074;2022-10-17T00:15:50;16.60;69.20
29431;DHT22;16404;49.902;10.074;2022-10-17T00:18:34;16.50;68.90
29431;DHT22;16404;49.902;10.074;2022-10-17T00:21:20;16.50;69.10
29431;DHT22;16404;49.902;10.074;2022-10-17T00:24:05;16.40;69.10
29431;DHT22;16404;49.902;10.074;2022-10-17T00:26:49;16.40;69.20
29431;DHT22;16404;49.902;10.074;2022-10-17T00:29:34;16.30;69.20
29431;DHT22;16404;49.902;10.074;2022-10-17T00:32:20;16.30;69.40
29431;DHT22;16404;49.902;10.074;2022-10-17T00:35:04;16.20;69.20
29431;DHT22;16404;49.902;10.074;2022-10-17T00:37:49;16.20;69.00
29431;DHT22;16404;49.902;10.074;2022-10-17T00:40:34;16.20;68.90
29431;DHT22;16404;49.902;10.074;2022-10-17T00:43:19;16.10;68.60
29431;DHT22;16404;49.902;10.074;2022-10-17T00:46:04;16.20;68.70
29431;DHT22;16404;49.902;10.074;2022-10-17T00:48:50;16.20;68.70
29431;DHT22;16404;49.902;10.074;2022-10-17T00:51:48;16.10;68.70
29431;DHT22;16404;49.902;10.074;2022-10-17T00:54:37;16.10;68.70
29431;DHT22;16404;49.902;10.074;2022-10-17T00:57:24;16.10;68.60
29431;DHT22;16404;49.902;10.074;2022-10-17T01:00:10;16.10;68.80
29431;DHT22;16404;49.902;10.074;2022-10-17T01:02:54;16.00;68.70
29431;DHT22;16404;49.902;10.074;2022-10-17T01:05:40;16.10;68.70
29431;DHT22;16404;49.902;10.074;2022-10-17T01:08:25;16.00;68.50
29431;DHT22;16404;49.902;10.074;2022-10-17T01:11:21;15.90;68.80
29431;DHT22;16404;49.902;10.074;2022-10-17T01:14:21;15.80;69.00
29431;DHT22;16404;49.902;10.074;2022-10-17T01:17:25;15.90;69.10
29431;DHT22;16404;49.902;10.074;2022-10-17T01:30:22;15.80;69.70
29431;DHT22;16404;49.902;10.074;2022-10-17T01:33:23;15.80;69.70
29431;DHT22;16404;49.902;10.074;2022-10-17T01:39:23;15.70;69.90
29431;DHT22;16404;49.902;10.074;2022-10-17T01:44:59;15.80;69.40
29431;DHT22;16404;49.902;10.074;2022-10-17T01:47:46;15.80;69.40
29431;DHT22;16404;49.902;10.074;2022-10-17T01:50:37;15.70;69.40
29431;DHT22;16404;49.902;10.074;2022-10-17T01:53:34;15.70;69.40
29431;DHT22;16404;49.902;10.074;2022-10-17T01:56:23;15.60;69.10
29431;DHT22;16404;49.902;10.074;2022-10-17T01:59:18;15.70;69.10
29431;DHT22;16404;49.902;10.074;2022-10-17T02:02:04;15.70;69.00
29431;DHT22;16404;49.902;10.074;2022-10-17T02:04:52;15.70;68.80
29431;DHT22;16404;49.902;10.074;2022-10-17T02:07:40;15.70;68.80
29431;DHT22;16404;49.902;10.074;2022-10-17T02:16:34;15.60;68.60
29431;DHT22;16404;49.902;10.074;2022-10-17T02:22:26;15.60;68.40
29431;DHT22;16404;49.902;10.074;2022-10-17T02:31:19;15.60;68.70
29431;DHT22;16404;49.902;10.074;2022-10-17T02:34:15;15.50;68.40
29431;DHT22;16404;49.902;10.074;2022-10-17T02:37:06;15.50;68.40
29431;DHT22;16404;49.902;10.074;2022-10-17T02:39:54;15.50;68.30
29431;DHT22;16404;49.902;10.074;2022-10-17T02:42:41;15.40;68.50
29431;DHT22;16404;49.902;10.074;2022-10-17T02:45:28;15.40;68.50
29431;DHT22;16404;49.902;10.074;2022-10-17T02:48:25;15.40;68.50
29431;DHT22;16404;49.902;10.074;2022-10-17T02:51:28;15.40;68.40
29431;DHT22;16404;49.902;10.074;2022-10-17T02:54:22;15.30;68.60
29431;DHT22;16404;49.902;10.074;2022-10-17T03:00:01;15.30;68.10
29431;DHT22;16404;49.902;10.074;2022-10-17T03:02:50;15.30;68.10
29431;DHT22;16404;49.902;10.074;2022-10-17T03:05:34;15.20;68.20
29431;DHT22;16404;49.902;10.074;2022-10-17T03:08:20;15.20;68.40
29431;DHT22;16404;49.902;10.074;2022-10-17T03:11:05;15.20;68.50
29431;DHT22;16404;49.902;10.074;2022-10-17T03:13:50;15.20;68.60
29431;DHT22;16404;49.902;10.074;2022-10-17T03:16:34;15.20;68.60
29431;DHT22;16404;49.902;10.074;2022-10-17T03:19:19;15.10;68.40
29431;DHT22;16404;49.902;10.074;2022-10-17T03:22:03;15.10;68.30
29431;DHT22;16404;49.902;10.074;2022-10-17T03:24:49;15.10;68.30
29431;DHT22;16404;49.902;10.074;2022-10-17T03:27:33;15.10;68.30
29431;DHT22;16404;49.902;10.074;2022-10-17T03:30:19;15.10;68.00
29431;DHT22;16404;49.902;10.074;2022-10-17T03:33:03;15.00;67.90
29431;DHT22;16404;49.902;10.074;2022-10-17T03:35:48;15.00;67.80
29431;DHT22;16404;49.902;10.074;2022-10-17T03:38:33;15.00;68.00
29431;DHT22;16404;49.902;10.074;2022-10-17T03:41:18;14.90;68.20
29431;DHT22;16404;49.902;10.074;2022-10-17T03:44:03;14.90;68.40
29431;DHT22;16404;49.902;10.074;2022-10-17T03:46:48;14.90;68.50
29431;DHT22;16404;49.902;10.074;2022-10-17T03:49:33;15.00;68.50
29431;DHT22;16404;49.902;10.074;2022-10-17T03:52:17;15.00;68.30
29431;DHT22;16404;49.902;10.074;2022-10-17T03:55:02;14.90;68.30
29431;DHT22;16404;49.902;10.074;2022-10-17T03:57:47;14.90;68.50
29431;DHT22;16404;49.902;10.074;2022-10-17T04:00:37;14.90;68.50
29431;DHT22;16404;49.902;10.074;2022-10-17T04:03:22;14.90;68.60
29431;DHT22;16404;49.902;10.074;2022-10-17T04:06:06;14.80;68.50
29431;DHT22;16404;49.902;10.074;2022-10-17T04:08:54;14.80;68.80
29431;DHT22;16404;49.902;10.074;2022-10-17T04:11:45;14.80;68.80
29431;DHT22;16404;49.902;10.074;2022-10-17T04:14:30;14.80;68.70
29431;DHT22;16404;49.902;10.074;2022-10-17T04:17:14;14.80;68.60
29431;DHT22;16404;49.902;10.074;2022-10-17T04:19:59;14.80;68.50
29431;DHT22;16404;49.902;10.074;2022-10-17T04:22:44;14.70;68.40
29431;DHT22;16404;49.902;10.074;2022-10-17T04:25:30;14.80;68.30
29431;DHT22;16404;49.902;10.074;2022-10-17T04:28:15;14.80;68.00
29431;DHT22;16404;49.902;10.074;2022-10-17T04:31:02;14.70;68.10
29431;DHT22;16404;49.902;10.074;2022-10-17T04:33:53;14.70;68.20
29431;DHT22;16404;49.902;10.074;2022-10-17T04:36:37;14.70;68.30
29431;DHT22;16404;49.902;10.074;2022-10-17T04:39:22;14.70;68.40
29431;DHT22;16404;49.902;10.074;2022-10-17T04:42:06;14.70;68.40
29431;DHT22;16404;49.902;10.074;2022-10-17T04:44:51;14.60;68.30
29431;DHT22;16404;49.902;10.074;2022-10-17T04:47:36;14.60;68.30
29431;DHT22;16404;49.902;10.074;2022-10-17T04:50:20;14.60;68.10
29431;DHT22;16404;49.902;10.074;2022-10-17T04:53:24;14.60;68.00
29431;DHT22;16404;49.902;10.074;2022-10-17T04:56:21;14.50;68.00
29431;DHT22;16404;49.902;10.074;2022-10-17T04:59:06;14.50;68.10
29431;DHT22;16404;49.902;10.074;2022-10-17T05:01:51;14.50;68.10
29431;DHT22;16404;49.902;10.074;2022-10-17T05:04:36;14.50;68.20
29431;DHT22;16404;49.902;10.074;2022-10-17T05:07:20;14.50;68.10
29431;DHT22;16404;49.902;10.074;2022-10-17T05:10:24;14.60;68.00
29431;DHT22;16404;49.902;10.074;2022-10-17T05:13:10;14.60;68.20
29431;DHT22;16404;49.902;10.074;2022-10-17T05:15:59;14.60;68.30
29431;DHT22;16404;49.902;10.074;2022-10-17T05:18:47;14.50;68.70
29431;DHT22;16404;49.902;10.074;2022-10-17T05:21:32;14.50;69.00
29431;DHT22;16404;49.902;10.074;2022-10-17T05:24:16;14.50;69.10
29431;DHT22;16404;49.902;10.074;2022-10-17T05:27:01;14.50;69.30
29431;DHT22;16404;49.902;10.074;2022-10-17T05:29:46;14.50;69.20
29431;DHT22;16404;49.902;10.074;2022-10-17T05:32:37;14.50;69.20
29431;DHT22;16404;49.902;10.074;2022-10-17T05:35:22;14.50;69.10
29431;DHT22;16404;49.902;10.074;2022-10-17T05:38:06;14.50;69.00
29431;DHT22;16404;49.902;10.074;2022-10-17T05:40:59;14.50;69.00
29431;DHT22;16404;49.902;10.074;2022-10-17T05:43:45;14.40;69.20
29431;DHT22;16404;49.902;10.074;2022-10-17T05:46:34;14.50;69.20
29431;DHT22;16404;49.902;10.074;2022-10-17T05:49:19;14.50;69.20
29431;DHT22;16404;49.902;10.074;2022-10-17T05:52:05;14.60;69.40
29431;DHT22;16404;49.902;10.074;2022-10-17T05:54:58;14.60;69.30
29431;DHT22;16404;49.902;10.074;2022-10-17T05:57:44;14.50;69.10
29431;DHT22;16404;49.902;10.074;2022-10-17T06:00:33;14.50;69.30
29431;DHT22;16404;49.902;10.074;2022-10-17T06:03:18;14.50;69.30
29431;DHT22;16404;49.902;10.074;2022-10-17T06:06:05;14.50;69.50
29431;DHT22;16404;49.902;10.074;2022-10-17T06:08:50;14.60;69.60
29431;DHT22;16404;49.902;10.074;2022-10-17T06:11:40;14.60;69.80
29431;DHT22;16404;49.902;10.074;2022-10-17T06:14:25;14.60;69.90
29431;DHT22;16404;49.902;10.074;2022-10-17T06:17:14;14.70;69.80
29431;DHT22;16404;49.902;10.074;2022-10-17T06:19:59;14.70;69.70
29431;DHT22;16404;49.902;10.074;2022-10-17T06:22:43;14.80;69.80
29431;DHT22;16404;49.902;10.074;2022-10-17T06:25:33;14.80;69.70
29431;DHT22;16404;49.902;10.074;2022-10-17T06:28:18;14.80;69.70
29431;DHT22;16404;49.902;10.074;2022-10-17T06:31:14;14.80;69.70
29431;DHT22;16404;49.902;10.074;2022-10-17T06:34:20;14.90;70.20
29431;DHT22;16404;49.902;10.074;2022-10-17T06:37:08;14.90;69.90
29431;DHT22;16404;49.902;10.074;2022-10-17T06:39:54;15.00;70.00
29431;DHT22;16404;49.902;10.074;2022-10-17T06:42:43;15.00;69.80
29431;DHT22;16404;49.902;10.074;2022-10-17T06:45:44;15.00;69.60
29431;DHT22;16404;49.902;10.074;2022-10-17T06:48:47;15.10;70.00
29431;DHT22;16404;49.902;10.074;2022-10-17T06:51:45;15.10;70.00
29431;DHT22;16404;49.902;10.074;2022-10-17T06:54:31;15.20;70.40
29431;DHT22;16404;49.902;10.074;2022-10-17T06:57:42;15.20;70.40
29431;DHT22;16404;49.902;10.074;2022-10-17T07:00:50;15.20;70.50
29431;DHT22;16404;49.902;10.074;2022-10-17T07:03:36;15.30;70.50
29431;DHT22;16404;49.902;10.074;2022-10-17T07:06:20;15.40;70.70
29431;DHT22;16404;49.902;10.074;2022-10-17T07:09:08;15.50;70.40
29431;DHT22;16404;49.902;10.074;2022-10-17T07:11:54;15.60;70.30
29431;DHT22;16404;49.902;10.074;2022-10-17T07:14:39;15.60;70.80
29431;DHT22;16404;49.902;10.074;2022-10-17T07:17:23;15.70;71.00
29431;DHT22;16404;49.902;10.074;2022-10-17T07:20:09;15.80;71.10
29431;DHT22;16404;49.902;10.074;2022-10-17T07:22:55;15.90;71.20
29431;DHT22;16404;49.902;10.074;2022-10-17T07:25:40;16.00;71.30
29431;DHT22;16404;49.902;10.074;2022-10-17T07:28:26;16.20;71.70
29431;DHT22;16404;49.902;10.074;2022-10-17T07:31:15;16.30;72.00
29431;DHT22;16404;49.902;10.074;2022-10-17T07:34:00;16.50;72.00
29431;DHT22;16404;49.902;10.074;2022-10-17T07:36:45;16.70;71.90
29431;DHT22;16404;49.902;10.074;2022-10-17T07:39:31;17.00;71.30
29431;DHT22;16404;49.902;10.074;2022-10-17T07:42:16;17.20;71.00
29431;DHT22;16404;49.902;10.074;2022-10-17T07:45:00;17.40;71.40
29431;DHT22;16404;49.902;10.074;2022-10-17T07:47:47;17.60;71.50
29431;DHT22;16404;49.902;10.074;2022-10-17T07:50:33;18.00;71.40
29431;DHT22;16404;49.902;10.074;2022-10-17T07:53:18;18.40;70.90
29431;DHT22;16404;49.902;10.074;2022-10-17T07:56:07;18.80;70.70
29431;DHT22;16404;49.902;10.074;2022-10-17T07:58:52;19.10;70.50
29431;DHT22;16404;49.902;10.074;2022-10-17T08:01:37;19.40;70.00
29431;DHT22;16404;49.902;10.074;2022-10-17T08:04:22;19.80;69.60
29431;DHT22;16404;49.902;10.074;2022-10-17T08:07:07;20.20;69.10
29431;DHT22;16404;49.902;10.074;2022-10-17T08:09:51;20.70;68.70
29431;DHT22;16404;49.902;10.074;2022-10-17T08:12:36;21.00;68.10
29431;DHT22;16404;49.902;10.074;2022-10-17T08:15:21;21.30;67.90
29431;DHT22;16404;49.902;10.074;2022-10-17T08:18:05;21.60;67.20
29431;DHT22;16404;49.902;10.074;2022-10-17T08:20:50;22.00;66.70
29431;DHT22;16404;49.902;10.074;2022-10-17T08:23:35;22.40;65.90
29431;DHT22;16404;49.902;10.074;2022-10-17T08:26:20;22.70;65.50
29431;DHT22;16404;49.902;10.074;2022-10-17T08:29:04;23.00;65.10
29431;DHT22;16404;49.902;10.074;2022-10-17T08:31:49;23.30;64.20
29431;DHT22;16404;49.902;10.074;2022-10-17T08:34:34;23.60;63.90
29431;DHT22;16404;49.902;10.074;2022-10-17T08:37:19;23.80;63.00
29431;DHT22;16404;49.902;10.074;2022-10-17T08:40:04;24.10;63.40
29431;DHT22;16404;49.902;10.074;2022-10-17T08:42:58;24.30;61.70
29431;DHT22;16404;49.902;10.074;2022-10-17T08:45:51;24.50;60.70
29431;DHT22;16404;49.902;10.074;2022-10-17T08:48:42;24.70;60.20
29431;DHT22;16404;49.902;10.074;2022-10-17T08:51:31;24.80;60.50
29431;DHT22;16404;49.902;10.074;2022-10-17T08:54:41;25.10;60.60
29431;DHT22;16404;49.902;10.074;2022-10-17T08:57:24;25.30;60.00
29431;DHT22;16404;49.902;10.074;2022-10-17T09:00:17;25.60;59.80
29431;DHT22;16404;49.902;10.074;2022-10-17T09:03:56;25.60;60.70
29431;DHT22;16404;49.902;10.074;2022-10-17T09:18:34;26.50;57.50
29431;DHT22;16404;49.902;10.074;2022-10-17T09:24:40;26.60;56.80
29431;DHT22;16404;49.902;10.074;2022-10-17T09:42:27;25.40;57.90
29431;DHT22;16404;49.902;10.074;2022-10-17T09:45:18;25.30;58.20
29431;DHT22;16404;49.902;10.074;2022-10-17T09:48:29;25.00;58.90
29431;DHT22;16404;49.902;10.074;2022-10-17T09:51:15;24.90;59.60
29431;DHT22;16404;49.902;10.074;2022-10-17T09:54:02;24.80;60.10
29431;DHT22;16404;49.902;10.074;2022-10-17T09:57:04;24.70;61.00
29431;DHT22;16404;49.902;10.074;2022-10-17T10:00:04;24.60;60.00
29431;DHT22;16404;49.902;10.074;2022-10-17T10:03:25;24.50;60.20
29431;DHT22;16404;49.902;10.074;2022-10-17T10:06:14;24.50;61.60
29431;DHT22;16404;49.902;10.074;2022-10-17T10:09:00;24.50;61.30
29431;DHT22;16404;49.902;10.074;2022-10-17T10:11:53;24.40;62.00
29431;DHT22;16404;49.902;10.074;2022-10-17T10:14:38;24.30;62.70
29431;DHT22;16404;49.902;10.074;2022-10-17T10:17:33;24.30;62.30
29431;DHT22;16404;49.902;10.074;2022-10-17T10:20:34;24.30;63.00
29431;DHT22;16404;49.902;10.074;2022-10-17T10:23:19;24.30;62.60
29431;DHT22;16404;49.902;10.074;2022-10-17T10:26:17;24.30;62.80
29431;DHT22;16404;49.902;10.074;2022-10-17T10:32:15;24.20;61.70
29431;DHT22;16404;49.902;10.074;2022-10-17T10:35:17;24.10;61.50
29431;DHT22;16404;49.902;10.074;2022-10-17T10:38:09;24.10;62.20
29431;DHT22;16404;49.902;10.074;2022-10-17T10:40:56;24.10;62.00
29431;DHT22;16404;49.902;10.074;2022-10-17T10:43:47;24.10;61.40
29431;DHT22;16404;49.902;10.074;2022-10-17T10:46:31;24.10;61.40
29431;DHT22;16404;49.902;10.074;2022-10-17T10:49:29;24.10;61.10
29431;DHT22;16404;49.902;10.074;2022-10-17T10:52:30;24.10;61.40
29431;DHT22;16404;49.902;10.074;2022-10-17T10:55:31;24.20;62.30
29431;DHT22;16404;49.902;10.074;2022-10-17T10:58:53;24.30;61.20
29431;DHT22;16404;49.902;10.074;2022-10-17T11:07:49;24.50;60.00
29431;DHT22;16404;49.902;10.074;2022-10-17T11:10:43;24.50;59.80
29431;DHT22;16404;49.902;10.074;2022-10-17T11:13:48;24.60;59.60
29431;DHT22;16404;49.902;10.074;2022-10-17T11:16:38;24.60;59.10
29431;DHT22;16404;49.902;10.074;2022-10-17T11:19:36;24.70;59.70
29431;DHT22;16404;49.902;10.074;2022-10-17T11:22:31;24.80;59.40
29431;DHT22;16404;49.902;10.074;2022-10-17T11:25:34;24.90;59.60
29431;DHT22;16404;49.902;10.074;2022-10-17T11:28:22;24.90;59.30
29431;DHT22;16404;49.902;10.074;2022-10-17T11:31:14;25.00;58.90
29431;DHT22;16404;49.902;10.074;2022-10-17T11:34:11;25.00;58.90
29431;DHT22;16404;49.902;10.074;2022-10-17T11:37:22;25.10;59.00
29431;DHT22;16404;49.902;10.074;2022-10-17T11:40:26;25.10;59.30
29431;DHT22;16404;49.902;10.074;2022-10-17T11:43:21;25.30;59.20
29431;DHT22;16404;49.902;10.074;2022-10-17T11:46:21;25.50;59.00
29431;DHT22;16404;49.902;10.074;2022-10-17T11:49:12;25.50;60.30
29431;DHT22;16404;49.902;10.074;2022-10-17T11:55:09;25.60;58.90
29431;DHT22;16404;49.902;10.074;2022-10-17T12:04:23;25.90;59.30
29431;DHT22;16404;49.902;10.074;2022-10-17T12:19:20;26.10;56.80
29431;DHT22;16404;49.902;10.074;2022-10-17T12:25:03;26.10;55.50
29431;DHT22;16404;49.902;10.074;2022-10-17T12:27:49;26.20;55.70
29431;DHT22;16404;49.902;10.074;2022-10-17T12:30:34;26.20;55.10
29431;DHT22;16404;49.902;10.074;2022-10-17T12:33:23;26.20;55.20
29431;DHT22;16404;49.902;10.074;2022-10-17T12:49:59;25.80;57.80
29431;DHT22;16404;49.902;10.074;2022-10-17T12:55:28;25.50;57.00
29431;DHT22;16404;49.902;10.074;2022-10-17T12:58:15;25.40;57.30
29431;DHT22;16404;49.902;10.074;2022-10-17T13:01:00;25.30;57.10
29431;DHT22;16404;49.902;10.074;2022-10-17T13:03:45;25.30;57.90
29431;DHT22;16404;49.902;10.074;2022-10-17T13:06:32;25.30;58.00
29431;DHT22;16404;49.902;10.074;2022-10-17T13:12:22;25.20;58.40
29431;DHT22;16404;49.902;10.074;2022-10-17T13:15:10;25.30;57.90
29431;DHT22;16404;49.902;10.074;2022-10-17T13:18:00;25.40;57.50
29431;DHT22;16404;49.902;10.074;2022-10-17T13:23:43;25.50;58.30
29431;DHT22;16404;49.902;10.074;2022-10-17T13:26:27;25.60;58.80
29431;DHT22;16404;49.902;10.074;2022-10-17T13:29:14;25.50;58.30
29431;DHT22;16404;49.902;10.074;2022-10-17T13:32:01;25.50;58.30
29431;DHT22;16404;49.902;10.074;2022-10-17T13:35:07;25.40;58.00
29431;DHT22;16404;49.902;10.074;2022-10-17T13:37:52;25.40;59.20
29431;DHT22;16404;49.902;10.074;2022-10-17T13:40:40;25.50;59.00
29431;DHT22;16404;49.902;10.074;2022-10-17T13:43:25;25.50;59.10
29431;DHT22;16404;49.902;10.074;2022-10-17T13:46:24;25.50;58.80
29431;DHT22;16404;49.902;10.074;2022-10-17T13:52:20;25.40;58.00
29431;DHT22;16404;49.902;10.074;2022-10-17T13:55:14;25.40;58.10
29431;DHT22;16404;49.902;10.074;2022-10-17T13:58:17;25.40;56.50
29431;DHT22;16404;49.902;10.074;2022-10-17T14:01:02;25.30;56.00
29431;DHT22;16404;49.902;10.074;2022-10-17T14:03:47;25.40;57.50
29431;DHT22;16404;49.902;10.074;2022-10-17T14:06:43;25.40;57.50
29431;DHT22;16404;49.902;10.074;2022-10-17T14:09:29;25.30;55.80
29431;DHT22;16404;49.902;10.074;2022-10-17T14:12:14;25.30;57.10
29431;DHT22;16404;49.902;10.074;2022-10-17T14:15:02;25.30;57.00
29431;DHT22;16404;49.902;10.074;2022-10-17T14:17:56;25.30;56.90
29431;DHT22;16404;49.902;10.074;2022-10-17T14:20:46;25.20;55.80
29431;DHT22;16404;49.902;10.074;2022-10-17T14:23:40;25.20;56.70
29431;DHT22;16404;49.902;10.074;2022-10-17T14:26:25;25.20;56.20
29431;DHT22;16404;49.902;10.074;2022-10-17T14:29:30;25.20;55.10
29431;DHT22;16404;49.902;10.074;2022-10-17T14:32:17;25.10;55.50
29431;DHT22;16404;49.902;10.074;2022-10-17T14:35:03;25.20;55.70
29431;DHT22;16404;49.902;10.074;2022-10-17T14:37:51;25.20;54.80
29431;DHT22;16404;49.902;10.074;2022-10-17T14:40:36;25.30;55.40
29431;DHT22;16404;49.902;10.074;2022-10-17T14:43:24;25.30;55.10
29431;DHT22;16404;49.902;10.074;2022-10-17T14:46:18;25.30;55.40
29431;DHT22;16404;49.902;10.074;2022-10-17T14:49:16;25.20;55.50
29431;DHT22;16404;49.902;10.074;2022-10-17T14:55:12;25.20;56.40
29431;DHT22;16404;49.902;10.074;2022-10-17T14:57:58;25.20;56.50
29431;DHT22;16404;49.902;10.074;2022-10-17T15:00:43;25.10;56.10
29431;DHT22;16404;49.902;10.074;2022-10-17T15:03:27;25.10;56.00
29431;DHT22;16404;49.902;10.074;2022-10-17T15:06:22;25.10;56.40
29431;DHT22;16404;49.902;10.074;2022-10-17T15:09:08;25.10;56.30
29431;DHT22;16404;49.902;10.074;2022-10-17T15:11:59;25.10;56.40
29431;DHT22;16404;49.902;10.074;2022-10-17T15:14:46;25.10;56.10
29431;DHT22;16404;49.902;10.074;2022-10-17T15:17:32;25.10;56.00
29431;DHT22;16404;49.902;10.074;2022-10-17T15:20:18;25.00;55.90
29431;DHT22;16404;49.902;10.074;2022-10-17T15:23:03;25.00;55.90
29431;DHT22;16404;49.902;10.074;2022-10-17T15:25:47;24.90;55.80
29431;DHT22;16404;49.902;10.074;2022-10-17T15:28:33;24.90;55.60
29431;DHT22;16404;49.902;10.074;2022-10-17T15:31:21;24.90;55.90
29431;DHT22;16404;49.902;10.074;2022-10-17T15:34:06;24.90;55.90
29431;DHT22;16404;49.902;10.074;2022-10-17T15:36:51;24.90;55.70
29431;DHT22;16404;49.902;10.074;2022-10-17T15:39:37;24.80;56.10
29431;DHT22;16404;49.902;10.074;2022-10-17T15:42:26;24.80;55.70
29431;DHT22;16404;49.902;10.074;2022-10-17T15:45:12;24.80;55.50
29431;DHT22;16404;49.902;10.074;2022-10-17T15:48:03;24.70;55.30
29431;DHT22;16404;49.902;10.074;2022-10-17T15:50:48;24.60;54.50
29431;DHT22;16404;49.902;10.074;2022-10-17T15:53:33;24.50;54.40
29431;DHT22;16404;49.902;10.074;2022-10-17T15:56:25;24.40;54.50
29431;DHT22;16404;49.902;10.074;2022-10-17T15:59:14;24.30;55.10
29431;DHT22;16404;49.902;10.074;2022-10-17T16:02:00;24.30;55.20
29431;DHT22;16404;49.902;10.074;2022-10-17T16:04:47;24.20;55.10
29431;DHT22;16404;49.902;10.074;2022-10-17T16:07:32;24.10;55.50
29431;DHT22;16404;49.902;10.074;2022-10-17T16:10:17;24.10;55.50
29431;DHT22;16404;49.902;10.074;2022-10-17T16:13:01;24.00;55.50
29431;DHT22;16404;49.902;10.074;2022-10-17T16:15:46;23.90;55.70
29431;DHT22;16404;49.902;10.074;2022-10-17T16:18:30;23.90;56.20
29431;DHT22;16404;49.902;10.074;2022-10-17T16:21:16;23.90;56.40
29431;DHT22;16404;49.902;10.074;2022-10-17T16:24:01;24.00;56.40
29431;DHT22;16404;49.902;10.074;2022-10-17T16:26:46;24.00;56.20
29431;DHT22;16404;49.902;10.074;2022-10-17T16:29:30;24.10;56.20
29431;DHT22;16404;49.902;10.074;2022-10-17T16:32:14;23.90;56.40
29431;DHT22;16404;49.902;10.074;2022-10-17T16:34:59;23.90;56.40
29431;DHT22;16404;49.902;10.074;2022-10-17T16:37:44;23.70;56.60
29431;DHT22;16404;49.902;10.074;2022-10-17T16:40:31;23.60;56.90
29431;DHT22;16404;49.902;10.074;2022-10-17T16:43:15;23.60;57.10
29431;DHT22;16404;49.902;10.074;2022-10-17T16:46:04;23.60;57.20
29431;DHT22;16404;49.902;10.074;2022-10-17T16:48:49;23.50;57.20
29431;DHT22;16404;49.902;10.074;2022-10-17T16:51:33;23.50;57.20
29431;DHT22;16404;49.902;10.074;2022-10-17T16:54:18;23.50;57.30
29431;DHT22;16404;49.902;10.074;2022-10-17T16:57:03;23.50;57.30
29431;DHT22;16404;49.902;10.074;2022-10-17T16:59:48;23.40;57.30
29431;DHT22;16404;49.902;10.074;2022-10-17T17:02:32;23.20;57.50
29431;DHT22;16404;49.902;10.074;2022-10-17T17:05:17;23.00;57.80
29431;DHT22;16404;49.902;10.074;2022-10-17T17:08:01;23.00;58.10
29431;DHT22;16404;49.902;10.074;2022-10-17T17:10:47;23.00;58.10
29431;DHT22;16404;49.902;10.074;2022-10-17T17:13:37;22.90;57.90
29431;DHT22;16404;49.902;10.074;2022-10-17T17:16:22;22.90;58.10
29431;DHT22;16404;49.902;10.074;2022-10-17T17:19:13;22.90;57.90
29431;DHT22;16404;49.902;10.074;2022-10-17T17:22:00;22.90;58.10
29431;DHT22;16404;49.902;10.074;2022-10-17T17:24:44;22.80;57.80
29431;DHT22;16404;49.902;10.074;2022-10-17T17:27:29;22.80;57.90
29431;DHT22;16404;49.902;10.074;2022-10-17T17:30:14;22.70;57.70
29431;DHT22;16404;49.902;10.074;2022-10-17T17:32:59;22.60;57.90
29431;DHT22;16404;49.902;10.074;2022-10-17T17:35:44;22.40;58.20
29431;DHT22;16404;49.902;10.074;2022-10-17T17:38:29;22.30;58.50
29431;DHT22;16404;49.902;10.074;2022-10-17T17:41:16;22.10;58.60
29431;DHT22;16404;49.902;10.074;2022-10-17T17:44:01;22.00;59.20
29431;DHT22;16404;49.902;10.074;2022-10-17T17:46:46;21.90;59.50
29431;DHT22;16404;49.902;10.074;2022-10-17T17:49:30;21.90;59.40
29431;DHT22;16404;49.902;10.074;2022-10-17T17:52:15;21.90;59.00
29431;DHT22;16404;49.902;10.074;2022-10-17T17:55:00;21.90;59.40
29431;DHT22;16404;49.902;10.074;2022-10-17T17:57:44;21.90;59.70
29431;DHT22;16404;49.902;10.074;2022-10-17T18:00:29;22.00;59.80
29431;DHT22;16404;49.902;10.074;2022-10-17T18:03:14;21.90;60.00
29431;DHT22;16404;49.902;10.074;2022-10-17T18:05:58;21.90;60.10
29431;DHT22;16404;49.902;10.074;2022-10-17T18:08:48;21.80;60.00
29431;DHT22;16404;49.902;10.074;2022-10-17T18:11:33;21.70;60.00
29431;DHT22;16404;49.902;10.074;2022-10-17T18:14:17;21.60;60.30
29431;DHT22;16404;49.902;10.074;2022-10-17T18:17:07;21.60;60.50
29431;DHT22;16404;49.902;10.074;2022-10-17T18:19:51;21.40;60.40
29431;DHT22;16404;49.902;10.074;2022-10-17T18:22:36;21.40;60.70
29431;DHT22;16404;49.902;10.074;2022-10-17T18:25:20;21.30;60.40
29431;DHT22;16404;49.902;10.074;2022-10-17T18:28:05;21.30;60.60
29431;DHT22;16404;49.902;10.074;2022-10-17T18:30:49;21.20;60.80
29431;DHT22;16404;49.902;10.074;2022-10-17T18:33:34;21.20;61.10
29431;DHT22;16404;49.902;10.074;2022-10-17T18:36:19;21.10;61.20
29431;DHT22;16404;49.902;10.074;2022-10-17T18:39:04;21.00;61.10
29431;DHT22;16404;49.902;10.074;2022-10-17T18:41:49;21.00;61.30
29431;DHT22;16404;49.902;10.074;2022-10-17T18:44:33;20.90;61.10
29431;DHT22;16404;49.902;10.074;2022-10-17T18:47:18;20.80;61.10
29431;DHT22;16404;49.902;10.074;2022-10-17T18:50:03;20.70;61.40
29431;DHT22;16404;49.902;10.074;2022-10-17T18:52:48;20.70;61.20
29431;DHT22;16404;49.902;10.074;2022-10-17T18:55:33;20.60;61.20
29431;DHT22;16404;49.902;10.074;2022-10-17T18:58:17;20.60;61.10
29431;DHT22;16404;49.902;10.074;2022-10-17T19:01:04;20.50;60.90
29431;DHT22;16404;49.902;10.074;2022-10-17T19:03:51;20.40;61.20
29431;DHT22;16404;49.902;10.074;2022-10-17T19:06:36;20.40;61.80
29431;DHT22;16404;49.902;10.074;2022-10-17T19:09:21;20.40;62.40
29431;DHT22;16404;49.902;10.074;2022-10-17T19:12:05;20.40;62.10
29431;DHT22;16404;49.902;10.074;2022-10-17T19:14:50;20.40;62.60
29431;DHT22;16404;49.902;10.074;2022-10-17T19:17:36;20.30;62.30
29431;DHT22;16404;49.902;10.074;2022-10-17T19:20:20;20.20;62.20
29431;DHT22;16404;49.902;10.074;2022-10-17T19:23:05;20.20;61.70
29431;DHT22;16404;49.902;10.074;2022-10-17T19:25:49;20.10;61.80
29431;DHT22;16404;49.902;10.074;2022-10-17T19:28:35;20.00;62.00
29431;DHT22;16404;49.902;10.074;2022-10-17T19:31:24;20.00;62.20
29431;DHT22;16404;49.902;10.074;2022-10-17T19:34:09;19.90;62.10